Time;durP1;ratioP1;P1;durP2;ratioP2;P2;SDS_P1;SDS_P2;PMS_P1;PMS_P2;Temp;Humidity;BMP_temperature;BMP_pressure;BME280_temperature;BME280_humidity;BME280_pressure;Samples;Min_cycle;Max_cycle;Signal;HPM_P1;HPM_P2
2020/12/18 00:00:06;;;;;;;8.43;7.10;;;7.30;99.90;;;;;;4975061;28;20073;-79
2020/12/18 00:02:32;;;;;;;8.70;6.97;;;7.30;93.60;;;;;;4957974;28;20122;-79
2020/12/18 00:04:59;;;;;;;7.97;6.32;;;;;;;;;;4957800;28;20022;-79
2020/12/18 00:07:25;;;;;;;7.30;6.28;;;7.00;99.90;;;;;;4958048;28;20031;-79
2020/12/18 00:09:50;;;;;;;7.13;6.18;;;7.20;99.90;;;;;;4957775;28;20035;-79
2020/12/18 00:12:16;;;;;;;8.80;6.88;;;7.00;99.90;;;;;;4974839;28;20038;-79
2020/12/18 00:14:41;;;;;;;9.02;6.32;;;6.80;99.90;;;;;;4957731;28;20023;-80
2020/12/18 00:17:07;;;;;;;7.13;6.35;;;;;;;;;;4957525;28;20121;-79
2020/12/18 00:19:33;;;;;;;7.35;5.93;;;;;;;;;;4975273;28;20154;-79
2020/12/18 00:21:59;;;;;;;10.38;6.22;;;6.50;99.90;;;;;;4957170;28;20485;-79
2020/12/18 00:24:25;;;;;;;7.75;6.38;;;6.50;99.90;;;;;;4957321;28;20109;-79
2020/12/18 00:26:50;;;;;;;7.95;6.07;;;6.80;99.90;;;;;;4957484;28;20049;-79
2020/12/18 00:29:16;;;;;;;10.23;6.20;;;;;;;;;;4941358;28;20509;-79
2020/12/18 00:31:42;;;;;;;6.85;6.00;;;6.50;99.90;;;;;;4957152;28;20019;-79
2020/12/18 00:34:08;;;;;;;9.68;6.07;;;6.50;99.90;;;;;;4957244;28;20027;-80
2020/12/18 00:36:34;;;;;;;7.72;5.78;;;;;;;;;;4957009;28;20066;-79
2020/12/18 00:39:00;;;;;;;7.63;6.15;;;6.60;99.90;;;;;;4941449;28;20030;-79
2020/12/18 00:41:25;;;;;;;9.98;6.55;;;6.70;99.40;;;;;;4957551;28;20061;-80
2020/12/18 00:43:51;;;;;;;6.50;5.57;;;;;;;;;;4974450;28;20062;-79
2020/12/18 00:46:17;;;;;;;7.95;5.65;;;;;;;;;;4974209;28;20019;-79
2020/12/18 00:48:43;;;;;;;8.07;6.13;;;6.60;99.90;;;;;;4957281;28;20031;-79
2020/12/18 00:51:09;;;;;;;8.70;5.97;;;6.50;99.90;;;;;;4956995;28;20058;-79
2020/12/18 00:53:36;;;;;;;12.52;6.30;;;6.50;99.90;;;;;;4941111;28;20038;-78
2020/12/18 00:56:08;;;;;;;7.78;6.07;;;6.40;99.90;;;;;;4957052;28;20026;-79
2020/12/18 00:58:34;;;;;;;;;;;6.60;95.10;;;;;;4941142;28;20050;-79
2020/12/18 01:01:00;;;;;;;7.63;5.50;;;7.10;99.90;;;;;;4973185;28;19937;-79
2020/12/18 01:03:26;;;;;;;6.35;5.63;;;6.30;99.90;;;;;;4956576;28;20023;-79
2020/12/18 01:05:51;;;;;;;11.20;6.55;;;6.90;99.90;;;;;;4956835;28;20026;-79
2020/12/18 01:08:17;;;;;;;6.65;5.80;;;6.60;99.90;;;;;;4956967;28;20030;-79
2020/12/18 01:10:43;;;;;;;6.05;5.43;;;;;;;;;;4956827;28;20080;-79
2020/12/18 01:13:08;;;;;;;7.97;5.63;;;6.80;99.90;;;;;;4956813;28;20027;-79
2020/12/18 01:15:34;;;;;;;7.20;5.20;;;6.70;99.90;;;;;;4956491;28;20050;-80
2020/12/18 01:18:00;;;;;;;8.70;5.82;;;6.80;99.90;;;;;;4973593;28;20082;-79
2020/12/18 01:20:25;;;;;;;6.90;5.47;;;7.00;99.90;;;;;;4973864;28;20105;-79
2020/12/18 01:22:51;;;;;;;7.30;5.95;;;6.80;99.90;;;;;;4956546;28;20027;-79
2020/12/18 01:25:16;;;;;;;7.45;5.85;;;7.10;99.90;;;;;;4956443;28;20031;-79
2020/12/18 01:27:42;;;;;;;6.93;5.60;;;6.80;99.90;;;;;;4956371;28;20110;-79
2020/12/18 01:30:07;;;;;;;6.70;5.80;;;7.00;99.90;;;;;;4973593;28;20039;-79
2020/12/18 01:32:33;;;;;;;7.65;5.72;;;6.70;99.90;;;;;;4956528;28;20026;-80
2020/12/18 01:34:59;;;;;;;5.88;5.28;;;;;;;;;;4973446;28;20031;-80
2020/12/18 01:37:25;;;;;;;8.98;5.93;;;6.90;93.10;;;;;;4973671;28;20057;-80
2020/12/18 01:39:50;;;;;;;7.55;6.05;;;6.80;99.90;;;;;;4973793;28;20042;-80
2020/12/18 01:42:16;;;;;;;7.95;5.75;;;6.60;99.90;;;;;;4956227;28;20477;-79
2020/12/18 01:44:41;;;;;;;7.28;6.38;;;7.00;99.90;;;;;;4956439;28;20034;-79
2020/12/18 01:47:19;;;;;;;7.63;6.65;;;6.50;99.90;;;;;;4956488;28;20458;-79
2020/12/18 01:49:44;;;;;;;10.85;6.70;;;6.80;99.90;;;;;;4956194;28;20105;-79
2020/12/18 01:52:10;;;;;;;7.40;6.03;;;6.80;99.90;;;;;;4956016;28;20481;-79
2020/12/18 01:54:35;;;;;;;9.45;5.90;;;6.60;99.90;;;;;;4956088;28;20038;-80
2020/12/18 01:57:01;;;;;;;11.23;6.15;;;6.70;99.90;;;;;;4956345;28;20039;-80
2020/12/18 01:59:27;;;;;;;8.15;6.38;;;6.60;99.90;;;;;;4955860;28;20105;-80
2020/12/18 02:01:52;;;;;;;8.85;5.82;;;6.70;94.20;;;;;;4956217;28;20122;-79
2020/12/18 02:04:18;;;;;;;8.50;5.75;;;;;;;;;;4955919;28;20559;-79
2020/12/18 02:06:44;;;;;;;7.72;5.85;;;6.70;99.90;;;;;;4973432;28;20069;-79
2020/12/18 02:09:09;;;;;;;8.52;5.55;;;6.70;99.90;;;;;;4956169;28;20524;-80
2020/12/18 02:11:35;;;;;;;8.32;5.65;;;6.80;94.10;;;;;;4956288;28;20031;-80
2020/12/18 02:14:00;;;;;;;7.55;5.78;;;6.90;94.00;;;;;;4958316;28;20382;-79
2020/12/18 02:16:26;;;;;;;8.55;5.57;;;6.80;99.90;;;;;;4959735;28;20393;-79
2020/12/18 02:18:52;;;;;;;8.30;5.72;;;6.70;99.90;;;;;;4960003;28;20030;-79
2020/12/18 02:21:17;;;;;;;10.10;6.15;;;6.90;94.00;;;;;;4959901;28;20033;-79
2020/12/18 02:23:43;;;;;;;8.23;5.70;;;6.90;99.90;;;;;;4959650;28;20035;-79
2020/12/18 02:26:10;;;;;;;5.72;5.18;;;6.90;98.80;;;;;;4959631;28;20116;-79
2020/12/18 02:28:39;;;;;;;10.43;6.75;;;6.80;97.70;;;;;;4959581;28;20038;-79
2020/12/18 02:31:05;;;;;;;9.35;6.60;;;;;;;;;;4943419;28;20381;-79
2020/12/18 02:33:31;;;;;;;7.75;6.30;;;6.90;99.90;;;;;;4959663;28;20533;-79
2020/12/18 02:35:58;;;;;;;7.60;6.80;;;6.70;94.10;;;;;;4959664;28;20126;-79
2020/12/18 02:38:24;;;;;;;8.07;6.85;;;;;;;;;;4959583;28;20042;-79
2020/12/18 02:40:50;;;;;;;10.02;7.40;;;6.90;99.90;;;;;;4976602;28;20044;-79
2020/12/18 02:43:16;;;;;;;8.35;7.00;;;6.60;94.60;;;;;;4959381;28;20047;-79
2020/12/18 02:45:41;;;;;;;7.60;6.28;;;;;;;;;;4959400;28;20026;-79
2020/12/18 02:48:07;;;;;;;7.90;7.10;;;6.80;99.90;;;;;;4976638;28;20384;-79
2020/12/18 02:50:33;;;;;;;8.50;6.57;;;6.60;99.90;;;;;;4976472;28;20082;-80
2020/12/18 02:53:01;;;;;;;8.48;6.50;;;6.90;99.90;;;;;;4959021;28;20054;-79
2020/12/18 02:55:27;;;;;;;7.55;6.38;;;6.60;99.90;;;;;;4959131;28;20440;-80
2020/12/18 02:57:52;;;;;;;8.45;6.70;;;6.70;94.60;;;;;;4976130;28;20094;-80
2020/12/18 03:00:18;;;;;;;9.63;6.63;;;;;;;;;;4959047;28;20046;-80
2020/12/18 03:02:44;;;;;;;7.57;6.68;;;6.70;99.90;;;;;;4959181;28;20030;-79
2020/12/18 03:05:09;;;;;;;9.68;6.55;;;6.40;94.30;;;;;;4959081;28;20029;-79
2020/12/18 03:07:35;;;;;;;8.88;6.47;;;;;;;;;;4942761;28;20524;-79
2020/12/18 03:10:01;;;;;;;6.93;5.75;;;7.00;99.90;;;;;;4958891;28;20035;-80
2020/12/18 03:12:27;;;;;;;7.45;6.55;;;7.10;94.50;;;;;;4958717;28;20042;-79
2020/12/18 03:14:52;;;;;;;8.68;6.30;;;6.80;94.40;;;;;;4958575;28;20085;-79
2020/12/18 03:17:18;;;;;;;9.98;6.10;;;7.00;99.90;;;;;;4942671;28;20049;-79
2020/12/18 03:19:43;;;;;;;8.10;6.45;;;6.80;93.90;;;;;;4975794;28;20041;-79
2020/12/18 03:22:09;;;;;;;6.95;6.25;;;7.00;94.20;;;;;;4958609;28;20094;-79
2020/12/18 03:24:34;;;;;;;7.90;6.68;;;6.60;99.90;;;;;;4975967;28;20385;-79
2020/12/18 03:27:00;;;;;;;7.97;6.38;;;6.90;94.20;;;;;;4958489;28;20081;-79
2020/12/18 03:29:25;;;;;;;7.85;6.38;;;6.80;94.30;;;;;;4958363;28;20454;-80
2020/12/18 03:31:51;;;;;;;8.80;6.68;;;6.90;99.90;;;;;;4958345;28;20034;-79
2020/12/18 03:34:17;;;;;;;9.27;7.15;;;6.80;94.30;;;;;;4958653;28;20062;-79
2020/12/18 03:36:42;;;;;;;9.32;6.78;;;6.80;94.50;;;;;;4975511;28;20042;-79
2020/12/18 03:39:08;;;;;;;8.18;6.82;;;;;;;;;;4958638;28;20043;-79
2020/12/18 03:41:34;;;;;;;7.30;6.57;;;6.80;98.50;;;;;;4975765;28;20488;-79
2020/12/18 03:44:00;;;;;;;11.25;6.03;;;6.90;94.40;;;;;;4942078;28;20030;-79
2020/12/18 03:46:26;;;;;;;8.27;6.70;;;;;;;;;;4958419;28;20039;-79
2020/12/18 03:48:53;;;;;;;10.55;7.25;;;6.80;94.70;;;;;;4975367;28;20100;-79
2020/12/18 03:51:19;;;;;;;7.05;6.35;;;;;;;;;;4975440;28;20025;-79
2020/12/18 03:53:44;;;;;;;9.48;7.82;;;6.60;99.90;;;;;;4975160;28;20018;-79
2020/12/18 03:56:10;;;;;;;8.70;7.00;;;6.90;94.20;;;;;;4957967;28;20042;-79
2020/12/18 03:58:36;;;;;;;9.48;7.53;;;7.10;94.30;;;;;;4957471;28;20061;-79
2020/12/18 04:01:01;;;;;;;9.10;7.70;;;6.80;99.90;;;;;;4957997;28;20470;-79
2020/12/18 04:03:27;;;;;;;9.25;7.68;;;6.70;94.20;;;;;;4958023;28;20023;-79
2020/12/18 04:05:53;;;;;;;11.55;7.97;;;6.70;94.20;;;;;;4957695;28;20030;-80
2020/12/18 04:08:20;;;;;;;13.27;9.90;;;7.00;99.90;;;;;;4975069;28;20121;-79
2020/12/18 04:10:45;;;;;;;15.20;9.32;;;6.60;94.10;;;;;;4941664;28;20041;-79
2020/12/18 04:13:11;;;;;;;12.82;9.90;;;6.80;94.50;;;;;;4957545;28;20034;-79
2020/12/18 04:15:40;;;;;;;14.60;11.27;;;6.70;99.90;;;;;;4974753;28;20026;-79
2020/12/18 04:18:06;;;;;;;13.52;10.63;;;6.60;99.90;;;;;;4941687;28;20035;-79
2020/12/18 04:20:31;;;;;;;11.13;9.45;;;6.80;94.40;;;;;;4925778;28;20034;-79
2020/12/18 04:22:57;;;;;;;15.02;10.52;;;6.30;99.90;;;;;;4957550;28;20469;-79
2020/12/18 04:25:22;;;;;;;13.05;9.73;;;6.00;99.90;;;;;;4957334;28;20067;-79
2020/12/18 04:27:48;;;;;;;12.93;9.32;;;6.50;94.80;;;;;;4957492;28;20038;-79
2020/12/18 04:30:14;;;;;;;11.52;9.32;;;6.60;99.90;;;;;;4957513;28;20018;-79
2020/12/18 04:32:39;;;;;;;11.15;8.45;;;6.20;99.90;;;;;;4957306;28;20069;-79
2020/12/18 04:35:05;;;;;;;13.18;8.98;;;6.30;95.10;;;;;;4957352;28;20030;-79
2020/12/18 04:37:31;;;;;;;41.30;26.58;;;;;;;;;;4973997;28;20043;-79
2020/12/18 04:39:56;;;;;;;14.50;10.45;;;6.20;99.90;;;;;;4974584;28;20029;-79
2020/12/18 04:42:22;;;;;;;10.32;8.02;;;6.30;95.20;;;;;;4956947;28;20027;-79
2020/12/18 04:44:47;;;;;;;13.00;8.30;;;6.10;99.90;;;;;;4957077;28;20026;-79
2020/12/18 04:47:13;;;;;;;12.75;9.07;;;6.40;99.90;;;;;;4956894;28;20027;-79
2020/12/18 04:49:40;;;;;;;12.38;9.38;;;6.20;99.90;;;;;;4957059;28;20037;-79
2020/12/18 04:52:09;;;;;;;12.45;9.30;;;6.50;99.90;;;;;;4941089;28;20034;-79
2020/12/18 04:54:34;;;;;;;14.90;9.80;;;;;;;;;;4957327;28;20027;-79
2020/12/18 04:57:00;;;;;;;15.35;11.43;;;6.20;99.90;;;;;;4956646;28;20444;-79
2020/12/18 04:59:26;;;;;;;14.73;10.50;;;6.60;99.90;;;;;;4940762;28;20358;-79
2020/12/18 05:01:53;;;;;;;13.75;11.23;;;6.50;99.90;;;;;;4940778;28;20067;-79
2020/12/18 05:04:19;;;;;;;13.25;10.02;;;6.50;99.90;;;;;;4941240;28;20056;-79
2020/12/18 05:06:45;;;;;;;15.18;11.52;;;6.90;95.70;;;;;;4940831;28;20027;-79
2020/12/18 05:09:11;;;;;;;10.85;9.38;;;6.50;99.90;;;;;;4956652;28;20053;-79
2020/12/18 05:11:36;;;;;;;14.52;10.60;;;6.00;99.90;;;;;;4956449;28;20078;-79
2020/12/18 05:14:02;;;;;;;18.55;13.00;;;6.40;99.90;;;;;;4956888;28;20441;-79
2020/12/18 05:16:28;;;;;;;29.65;18.05;;;6.50;99.90;;;;;;4956496;28;20031;-79
2020/12/18 05:18:55;;;;;;;85.53;49.22;;;;;;;;;;4940771;28;20540;-79
2020/12/18 05:21:21;;;;;;;19.75;12.57;;;6.60;99.90;;;;;;4974095;28;20360;-79
2020/12/18 05:23:46;;;;;;;13.10;10.38;;;6.50;99.90;;;;;;4957106;28;20030;-79
2020/12/18 05:26:13;;;;;;;16.45;12.00;;;6.70;95.40;;;;;;4956322;28;20058;-79
2020/12/18 05:28:42;;;;;;;10.90;8.82;;;6.10;99.90;;;;;;4940667;28;20031;-79
2020/12/18 05:31:12;;;;;;;10.50;7.53;;;6.40;99.90;;;;;;4956435;28;20465;-79
2020/12/18 05:33:38;;;;;;;8.98;7.78;;;6.50;99.90;;;;;;4956577;28;20027;-79
2020/12/18 05:36:04;;;;;;;11.73;9.10;;;6.40;95.40;;;;;;4940480;28;20031;-79
2020/12/18 05:38:30;;;;;;;10.85;9.25;;;6.40;99.90;;;;;;4940497;28;20046;-79
2020/12/18 05:40:59;;;;;;;11.73;9.38;;;6.40;99.90;;;;;;4956190;28;20445;-79
2020/12/18 05:43:25;;;;;;;11.65;10.38;;;6.60;99.90;;;;;;4940405;28;20058;-79
2020/12/18 05:45:51;;;;;;;10.88;9.35;;;6.50;95.60;;;;;;4940731;28;20027;-79
2020/12/18 05:48:16;;;;;;;14.70;10.75;;;6.50;95.60;;;;;;4957276;28;20069;-79
2020/12/18 05:50:42;;;;;;;11.65;9.45;;;6.70;99.90;;;;;;4928620;28;20085;-79
2020/12/18 05:53:09;;;;;;;9.13;7.53;;;6.50;95.30;;;;;;4960552;28;20069;-79
2020/12/18 05:55:39;;;;;;;7.80;6.40;;;6.60;99.90;;;;;;4944051;28;20085;-78
2020/12/18 05:58:04;;;;;;;9.23;7.57;;;6.50;95.20;;;;;;4960126;28;20516;-78
2020/12/18 06:00:30;;;;;;;10.45;7.22;;;;;;;;;;4960556;28;20125;-78
2020/12/18 06:03:00;;;;;;;7.78;6.97;;;6.60;99.90;;;;;;4977163;28;20030;-78
2020/12/18 06:05:26;;;;;;;8.20;7.05;;;6.60;99.90;;;;;;4944084;28;20027;-79
2020/12/18 06:07:52;;;;;;;10.23;7.60;;;6.60;95.80;;;;;;4959620;28;20042;-78
2020/12/18 06:10:24;;;;;;;7.93;6.13;;;6.40;95.70;;;;;;4959511;28;20042;-78
2020/12/18 06:12:51;;;;;;;11.57;7.05;;;;;;;;;;4959024;28;20030;-78
2020/12/18 06:15:17;;;;;;;7.57;6.72;;;6.40;99.90;;;;;;4959436;28;20525;-79
2020/12/18 06:17:44;;;;;;;9.30;6.28;;;6.40;95.20;;;;;;4958641;28;20393;-79
2020/12/18 06:20:13;;;;;;;9.45;6.50;;;6.40;99.90;;;;;;4956261;28;20054;-78
2020/12/18 06:22:54;;;;;;;7.20;6.50;;;6.60;94.90;;;;;;4921442;28;20437;-77
2020/12/18 06:25:20;;;;;;;7.40;6.68;;;;;;;;;;4946249;29;20031;-78
2020/12/18 06:27:47;;;;;;;7.15;6.32;;;6.30;99.90;;;;;;4943736;29;20026;-81
2020/12/18 06:30:13;;;;;;;12.25;7.95;;;6.30;94.30;;;;;;4912294;29;20031;-81
2020/12/18 06:32:44;;;;;;;10.05;8.45;;;5.90;99.50;;;;;;4939556;29;20030;-80
2020/12/18 06:35:26;;;;;;;10.30;8.23;;;5.80;99.90;;;;;;4939369;29;20023;-80
2020/12/18 06:37:52;;;;;;;9.27;8.20;;;5.60;99.90;;;;;;4939497;29;20042;-82
2020/12/18 06:40:31;;;;;;;8.93;7.93;;;5.60;94.80;;;;;;4920829;29;20054;-83
2020/12/18 06:42:58;;;;;;;11.75;8.50;;;5.50;94.20;;;;;;4952729;29;20035;-81
2020/12/18 06:45:24;;;;;;;14.00;8.75;;;5.80;99.90;;;;;;4941787;29;20020;-81
2020/12/18 06:47:50;;;;;;;13.65;9.38;;;;;;;;;;4908200;29;20046;-79
2020/12/18 06:50:16;;;;;;;16.02;9.48;;;5.30;99.90;;;;;;4956068;29;20481;-79
2020/12/18 06:52:45;;;;;;;46.22;10.85;;;5.70;99.90;;;;;;4923630;29;20118;-84
2020/12/18 06:55:27;;;;;;;17.85;9.07;;;5.70;99.90;;;;;;4956630;29;20513;-84
2020/12/18 06:58:11;;;;;;;124.18;13.65;;;5.30;99.90;;;;;;4941289;29;20056;-79
2020/12/18 07:00:45;;;;;;;140.55;13.43;;;5.30;99.90;;;;;;4955793;28;20087;-81
2020/12/18 07:03:30;;;;;;;49.35;10.85;;;5.40;95.10;;;;;;4913878;29;20032;-80
2020/12/18 07:06:02;;;;;;;69.38;13.10;;;5.60;99.90;;;;;;4933592;29;20118;-79
2020/12/18 07:08:29;;;;;;;;;;;5.50;97.40;;;;;;4940064;28;20031;-82
2020/12/18 07:10:54;;;;;;;182.13;17.20;;;5.80;96.30;;;;;;4939711;29;19906;-83
2020/12/18 07:13:20;;;;;;;69.18;12.52;;;5.60;96.40;;;;;;4899270;29;20560;-80
2020/12/18 07:16:26;;;;;;;;;;;;;;;;;;;;;
2020/12/18 07:18:57;;;;;;;128.23;14.80;;;5.30;95.80;;;;;;4940800;29;20035;-78
2020/12/18 07:21:23;;;;;;;47.65;12.93;;;;;;;;;;4921184;29;20027;-79
2020/12/18 07:23:50;;;;;;;37.65;10.90;;;5.50;99.90;;;;;;4939065;29;20426;-79
2020/12/18 07:26:16;;;;;;;69.53;11.50;;;5.60;96.40;;;;;;4930813;29;20033;-78
2020/12/18 07:28:43;;;;;;;61.67;11.05;;;;;;;;;;4952892;28;20023;-79
2020/12/18 07:31:15;;;;;;;18.58;10.15;;;5.30;99.90;;;;;;4942876;28;20020;-80
2020/12/18 07:33:41;;;;;;;25.58;10.45;;;5.20;99.90;;;;;;4944381;29;20067;-84
2020/12/18 07:36:07;;;;;;;29.27;10.95;;;5.00;96.00;;;;;;4921541;29;20032;-81
2020/12/18 07:38:33;;;;;;;39.83;11.13;;;5.10;96.10;;;;;;4922214;29;20094;-82
2020/12/18 07:41:00;;;;;;;37.83;11.82;;;5.20;96.00;;;;;;4904699;29;20024;-82
2020/12/18 07:43:27;;;;;;;70.18;12.07;;;5.30;95.90;;;;;;4910501;29;20055;-80
2020/12/18 07:45:57;;;;;;;30.42;10.80;;;5.70;95.70;;;;;;4940857;29;20070;-81
2020/12/18 07:48:30;;;;;;;48.38;10.32;;;5.30;99.90;;;;;;4938930;28;20047;-80
2020/12/18 07:51:09;;;;;;;85.30;12.77;;;5.00;99.90;;;;;;4922553;28;20032;-81
2020/12/18 07:53:42;;;;;;;80.55;11.82;;;5.80;99.90;;;;;;4923030;29;20098;-80
2020/12/18 07:56:16;;;;;;;23.25;11.00;;;5.30;95.80;;;;;;4907496;29;20058;-81
2020/12/18 07:59:00;;;;;;;45.45;11.75;;;5.10;99.90;;;;;;4926135;28;20047;-79
2020/12/18 08:01:28;;;;;;;113.03;14.15;;;5.30;99.90;;;;;;4937693;29;20122;-80
2020/12/18 08:03:56;;;;;;;63.22;12.10;;;5.40;99.90;;;;;;4949438;29;20524;-79
2020/12/18 08:06:25;;;;;;;29.67;11.00;;;5.50;99.90;;;;;;4938317;29;20105;-80
2020/12/18 08:09:00;;;;;;;67.85;14.52;;;5.70;99.90;;;;;;4953621;29;20031;-80
2020/12/18 08:11:28;;;;;;;54.80;12.15;;;5.50;99.90;;;;;;4937975;29;20055;-81
2020/12/18 08:13:56;;;;;;;85.70;14.35;;;;;;;;;;4955307;28;20089;-78
2020/12/18 08:16:24;;;;;;;43.10;12.32;;;;;;;;;;4937668;29;20123;-79
2020/12/18 08:18:51;;;;;;;57.05;13.45;;;5.70;99.90;;;;;;4937972;29;20046;-79
2020/12/18 08:21:22;;;;;;;84.95;12.35;;;5.60;99.90;;;;;;4922132;29;20027;-78
2020/12/18 08:23:50;;;;;;;71.70;14.63;;;5.50;99.90;;;;;;4922298;29;20027;-80
2020/12/18 08:26:15;;;;;;;51.45;12.55;;;5.40;99.90;;;;;;4921388;29;20174;-80
2020/12/18 08:28:41;;;;;;;38.03;11.35;;;5.50;99.90;;;;;;4921884;29;20114;-79
2020/12/18 08:31:08;;;;;;;54.83;10.77;;;5.70;95.80;;;;;;4955235;29;20031;-78
2020/12/18 08:33:46;;;;;;;43.67;12.07;;;6.00;95.10;;;;;;4922260;29;20027;-82
2020/12/18 08:36:12;;;;;;;49.03;10.50;;;;;;;;;;4923446;28;20127;-87
2020/12/18 08:38:37;;;;;;;53.78;9.30;;;5.90;99.90;;;;;;4909592;29;20039;-84
2020/12/18 08:41:06;;;;;;;39.72;8.68;;;5.90;99.90;;;;;;4887143;29;20027;-78
2020/12/18 08:43:34;;;;;;;27.15;7.85;;;6.00;99.90;;;;;;4951703;28;20105;-79
2020/12/18 08:46:00;;;;;;;44.03;9.05;;;6.70;99.90;;;;;;4934940;29;20107;-79
2020/12/18 08:48:29;;;;;;;33.70;7.55;;;6.60;99.90;;;;;;4923438;29;20406;-79
2020/12/18 08:50:59;;;;;;;13.75;8.07;;;6.40;99.90;;;;;;4908368;29;20024;-79
2020/12/18 08:53:29;;;;;;;20.90;7.68;;;6.50;99.90;;;;;;4937245;29;20478;-78
2020/12/18 08:56:04;;;;;;;20.63;7.60;;;6.60;99.90;;;;;;4921207;29;20027;-78
2020/12/18 08:58:33;;;;;;;13.93;7.50;;;6.70;93.30;;;;;;4953980;29;20134;-79
2020/12/18 09:00:59;;;;;;;13.65;7.63;;;6.80;93.70;;;;;;4923702;29;20887;-84
2020/12/18 09:03:26;;;;;;;18.67;8.40;;;6.80;93.30;;;;;;4921292;29;20059;-78
2020/12/18 09:05:51;;;;;;;16.52;7.95;;;7.00;92.90;;;;;;4899785;29;20032;-79
2020/12/18 09:08:19;;;;;;;26.13;7.90;;;6.70;93.00;;;;;;4935873;29;20038;-80
2020/12/18 09:10:51;;;;;;;21.02;8.55;;;6.70;93.00;;;;;;4921573;29;20440;-78
2020/12/18 09:13:22;;;;;;;15.85;9.10;;;6.70;93.10;;;;;;4953858;29;20027;-79
2020/12/18 09:15:49;;;;;;;9.65;7.97;;;7.30;99.40;;;;;;4905673;29;20549;-79
2020/12/18 09:18:23;;;;;;;11.65;8.60;;;7.90;93.20;;;;;;4921065;29;20101;-80
2020/12/18 09:20:49;;;;;;;13.60;8.35;;;;;;;;;;4906372;29;20446;-81
2020/12/18 09:23:16;;;;;;;9.80;8.00;;;8.90;94.90;;;;;;4936458;29;20488;-79
2020/12/18 09:25:43;;;;;;;16.25;9.30;;;9.70;94.60;;;;;;4954042;29;20032;-79
2020/12/18 09:28:17;;;;;;;10.13;7.70;;;9.80;83.90;;;;;;4903224;29;20067;-78
2020/12/18 09:30:50;;;;;;;8.00;7.20;;;10.30;81.40;;;;;;4922017;29;20091;-79
2020/12/18 09:33:25;;;;;;;7.63;6.63;;;10.80;84.40;;;;;;4905364;29;20043;-78
2020/12/18 09:36:02;;;;;;;7.93;6.22;;;11.30;91.30;;;;;;4953877;29;20083;-78
2020/12/18 09:38:42;;;;;;;9.45;6.38;;;11.70;86.70;;;;;;4953770;28;20035;-79
2020/12/18 09:41:12;;;;;;;8.18;7.38;;;11.80;84.30;;;;;;4938631;29;20024;-79
2020/12/18 09:43:38;;;;;;;9.48;7.82;;;;;;;;;;4936684;29;20110;-77
2020/12/18 09:46:05;;;;;;;8.18;7.38;;;12.50;90.50;;;;;;4936770;29;20461;-77
2020/12/18 09:48:31;;;;;;;8.68;6.63;;;12.40;72.60;;;;;;4936412;29;20043;-78
2020/12/18 09:50:58;;;;;;;6.40;5.80;;;13.10;84.80;;;;;;4926976;29;20541;-77
2020/12/18 09:53:24;;;;;;;7.50;6.80;;;13.10;70.30;;;;;;4953759;29;20035;-77
2020/12/18 09:55:50;;;;;;;6.25;5.65;;;13.90;92.30;;;;;;4920815;29;20031;-78
2020/12/18 09:58:16;;;;;;;7.45;6.63;;;13.70;77.90;;;;;;4951581;29;20079;-77
2020/12/18 10:00:42;;;;;;;7.57;6.53;;;13.90;77.00;;;;;;4953930;29;20047;-78
2020/12/18 10:03:07;;;;;;;8.15;6.57;;;14.10;87.40;;;;;;4953550;29;20102;-77
2020/12/18 10:05:33;;;;;;;7.50;6.78;;;14.10;67.50;;;;;;4953450;28;20023;-78
2020/12/18 10:07:58;;;;;;;6.95;6.25;;;14.20;67.00;;;;;;4936301;29;20034;-79
2020/12/18 10:12:00;;;;;;;9.63;8.63;;;14.30;66.90;;;;;;4920773;29;20038;-79
2020/12/18 10:14:38;;;;;;;10.32;6.82;;;15.10;74.30;;;;;;4886730;29;20037;-77
2020/12/18 10:17:04;;;;;;;;;;;14.50;66.30;;;;;;4913374;29;20054;-80
2020/12/18 10:19:29;;;;;;;9.15;6.35;;;14.80;74.40;;;;;;4936600;29;19907;-78
2020/12/18 10:21:55;;;;;;;8.30;7.50;;;14.70;66.20;;;;;;4936146;29;20031;-82
2020/12/18 10:24:20;;;;;;;11.93;7.50;;;14.80;66.90;;;;;;4920296;28;20106;-80
2020/12/18 10:26:48;;;;;;;12.18;10.98;;;15.80;88.00;;;;;;4936452;29;20477;-81
2020/12/18 10:29:13;;;;;;;8.35;7.05;;;15.90;62.60;;;;;;4936066;29;20035;-81
2020/12/18 10:31:39;;;;;;;9.10;7.22;;;15.80;62.00;;;;;;4919559;29;20041;-81
2020/12/18 10:34:05;;;;;;;8.60;7.25;;;15.60;89.20;;;;;;4953633;28;20027;-81
2020/12/18 10:36:30;;;;;;;8.25;7.40;;;15.50;63.60;;;;;;4924445;29;20113;-82
2020/12/18 10:39:49;;;;;;;10.57;7.55;;;15.60;62.70;;;;;;4929595;28;20039;-78
2020/12/18 10:42:35;;;;;;;;;;;;;;;;;;;;;
2020/12/18 10:45:01;;;;;;;8.60;7.45;;;15.40;89.20;;;;;;4926737;28;20502;-82
2020/12/18 10:47:27;;;;;;;9.93;7.15;;;15.30;88.80;;;;;;4923943;29;20118;-83
2020/12/18 10:49:56;;;;;;;9.63;7.07;;;15.30;64.00;;;;;;4940038;29;20466;-81
2020/12/18 10:52:22;;;;;;;7.55;6.65;;;15.40;63.80;;;;;;4920408;28;20441;-84
2020/12/18 10:54:48;;;;;;;9.93;8.00;;;;;;;;;;4929077;29;20027;-81
2020/12/18 10:57:13;;;;;;;7.38;6.53;;;14.80;90.30;;;;;;4923734;29;20070;-81
2020/12/18 10:59:39;;;;;;;9.85;6.82;;;14.90;64.90;;;;;;4919513;29;20503;-81
2020/12/18 11:02:04;;;;;;;8.18;7.00;;;14.10;92.20;;;;;;4920617;29;20023;-82
2020/12/18 11:04:30;;;;;;;7.75;6.75;;;14.10;81.70;;;;;;4932009;28;20041;-84
2020/12/18 11:06:56;;;;;;;7.75;7.00;;;14.00;69.30;;;;;;4928354;28;20122;-83
2020/12/18 11:09:21;;;;;;;7.90;7.10;;;14.90;91.70;;;;;;4942540;28;20055;-80
2020/12/18 11:11:54;;;;;;;10.90;7.78;;;15.40;86.80;;;;;;4926528;28;20034;-81
2020/12/18 11:14:21;;;;;;;10.35;7.43;;;15.40;66.40;;;;;;4927181;28;20377;-81
2020/12/18 11:16:47;;;;;;;8.35;7.43;;;16.40;90.10;;;;;;4911147;29;20478;-82
2020/12/18 11:19:12;;;;;;;9.40;8.10;;;16.10;64.30;;;;;;4919990;29;20070;-83
2020/12/18 11:21:43;;;;;;;8.05;7.05;;;16.30;64.20;;;;;;4920328;29;20028;-86
2020/12/18 11:24:08;;;;;;;9.48;7.57;;;16.90;61.30;;;;;;4921139;29;20359;-83
2020/12/18 11:26:34;;;;;;;9.68;7.85;;;17.70;75.60;;;;;;4919592;29;20122;-80
2020/12/18 11:29:00;;;;;;;12.55;7.75;;;17.50;68.60;;;;;;4935520;29;20063;-83
2020/12/18 11:31:25;;;;;;;8.50;6.72;;;16.90;60.50;;;;;;4919878;29;20036;-81
2020/12/18 11:33:51;;;;;;;6.63;5.80;;;16.40;61.40;;;;;;4919218;29;20115;-83
2020/12/18 11:36:17;;;;;;;8.05;6.32;;;;;;;;;;4918050;29;20459;-81
2020/12/18 11:38:42;;;;;;;6.93;5.80;;;15.80;63.00;;;;;;4933707;29;20633;-83
2020/12/18 11:41:08;;;;;;;6.60;5.13;;;15.50;64.60;;;;;;4934991;29;20122;-83
2020/12/18 11:43:35;;;;;;;6.00;5.20;;;15.10;64.80;;;;;;4920050;29;20028;-83
2020/12/18 11:46:02;;;;;;;7.72;5.55;;;15.00;65.30;;;;;;4935120;29;20122;-84
2020/12/18 11:48:29;;;;;;;8.80;5.00;;;14.50;68.60;;;;;;4935803;29;20569;-82
2020/12/18 11:50:55;;;;;;;6.70;5.47;;;13.90;81.50;;;;;;4920080;29;20031;-83
2020/12/18 11:53:21;;;;;;;7.35;5.38;;;;;;;;;;4935539;29;20038;-83
2020/12/18 11:55:47;;;;;;;7.28;5.70;;;14.40;73.90;;;;;;4935416;29;20394;-81
2020/12/18 11:58:12;;;;;;;8.38;5.45;;;14.70;77.60;;;;;;4935108;29;20060;-82
2020/12/18 12:00:38;;;;;;;6.82;5.70;;;14.50;67.50;;;;;;4934859;29;20067;-81
2020/12/18 12:03:04;;;;;;;6.90;5.03;;;14.90;66.90;;;;;;4935350;29;20059;-82
2020/12/18 12:05:30;;;;;;;6.13;5.53;;;15.30;67.10;;;;;;4951799;29;20027;-83
2020/12/18 12:07:55;;;;;;;6.05;5.22;;;15.70;63.50;;;;;;4919544;29;20032;-81
2020/12/18 12:10:21;;;;;;;5.85;4.68;;;15.60;62.10;;;;;;4919442;29;20031;-83
2020/12/18 12:12:47;;;;;;;7.35;5.00;;;15.90;89.50;;;;;;4935646;29;20435;-84
2020/12/18 12:15:12;;;;;;;5.40;4.68;;;15.80;63.60;;;;;;4935371;29;20066;-82
2020/12/18 12:17:38;;;;;;;4.97;4.40;;;15.70;72.00;;;;;;4935320;29;20422;-84
2020/12/18 12:20:04;;;;;;;4.82;4.32;;;15.80;62.70;;;;;;4935441;29;20064;-82
2020/12/18 12:22:29;;;;;;;7.18;5.03;;;15.80;63.10;;;;;;4951235;28;20526;-83
2020/12/18 12:24:55;;;;;;;4.70;4.28;;;15.80;61.90;;;;;;4934727;29;20031;-81
2020/12/18 12:27:22;;;;;;;5.05;4.55;;;15.80;62.10;;;;;;4933570;28;20028;-82
2020/12/18 12:29:48;;;;;;;6.45;4.70;;;15.80;62.30;;;;;;4920786;29;20031;-84
2020/12/18 12:32:14;;;;;;;6.28;4.75;;;15.70;62.70;;;;;;4920694;29;20028;-80
2020/12/18 12:34:40;;;;;;;7.85;5.28;;;15.30;89.40;;;;;;4937376;29;20059;-81
2020/12/18 12:37:06;;;;;;;6.95;4.90;;;15.50;64.50;;;;;;4954738;29;20486;-79
2020/12/18 12:39:32;;;;;;;6.68;5.22;;;15.30;64.80;;;;;;4938212;29;20030;-78
2020/12/18 12:41:58;;;;;;;6.13;4.85;;;;;;;;;;4938190;29;20426;-82
2020/12/18 12:44:23;;;;;;;5.38;4.70;;;14.80;72.60;;;;;;4938179;29;20027;-82
2020/12/18 12:46:49;;;;;;;5.47;4.35;;;14.70;68.60;;;;;;4955012;28;20035;-81
2020/12/18 12:49:15;;;;;;;5.35;4.60;;;;;;;;;;4938016;29;20027;-78
2020/12/18 12:51:41;;;;;;;4.80;3.80;;;14.50;91.40;;;;;;4953617;29;20102;-81
2020/12/18 12:54:06;;;;;;;4.25;3.53;;;14.50;81.20;;;;;;4921740;29;20446;-82
2020/12/18 12:56:32;;;;;;;4.05;3.40;;;;;;;;;;4921619;28;20549;-84
2020/12/18 12:59:01;;;;;;;5.35;3.17;;;14.70;91.50;;;;;;4937177;29;20050;-79
2020/12/18 13:01:31;;;;;;;7.75;3.60;;;14.30;67.40;;;;;;4937780;29;20032;-77
2020/12/18 13:03:56;;;;;;;4.20;3.33;;;14.20;66.80;;;;;;4954791;29;20019;-79